Time;durP1;ratioP1;P1;durP2;ratioP2;P2;SDS_P1;SDS_P2;PMS_P1;PMS_P2;Temp;Humidity;BMP_temperature;BMP_pressure;BME280_temperature;BME280_humidity;BME280_pressure;Samples;Min_cycle;Max_cycle;Signal;HPM_P1;HPM_P2
2024/01/26 00:01:36;;;;;;;1999.90;999.90;;;13.00;99.90;;;;;;5055934;28;20399;-74
2024/01/26 00:04:01;;;;;;;1999.90;999.90;;;13.00;99.90;;;;;;5075288;28;20025;-73
2024/01/26 00:06:27;;;;;;;1999.90;999.90;;;12.90;99.90;;;;;;5075001;28;20079;-73
2024/01/26 00:08:53;;;;;;;1999.90;999.90;;;12.90;99.90;;;;;;5075152;28;20454;-73
2024/01/26 00:11:19;;;;;;;1999.90;999.90;;;12.90;99.90;;;;;;5075382;28;20020;-71
2024/01/26 00:13:45;;;;;;;1999.90;999.90;;;12.80;99.90;;;;;;5077111;28;20081;-73
2024/01/26 00:16:10;;;;;;;1999.90;999.90;;;12.80;99.90;;;;;;5080491;28;20437;-74
2024/01/26 00:18:38;;;;;;;1999.90;999.90;;;12.70;99.90;;;;;;5086220;28;20043;-74
2024/01/26 00:21:04;;;;;;;1999.90;999.90;;;12.80;99.90;;;;;;5095403;28;20020;-74
2024/01/26 00:23:30;;;;;;;1999.90;999.90;;;12.80;99.90;;;;;;5083750;28;20035;-71
2024/01/26 00:25:57;;;;;;;1999.90;999.90;;;12.90;99.90;;;;;;5074914;28;20572;-73
2024/01/26 00:28:22;;;;;;;1999.90;999.90;;;12.90;99.90;;;;;;5083198;28;20150;-73
2024/01/26 00:30:48;;;;;;;1999.90;999.90;;;12.90;99.90;;;;;;5095210;28;20074;-71
2024/01/26 00:33:13;;;;;;;1999.90;999.90;;;12.90;99.90;;;;;;5080933;28;20024;-71
2024/01/26 00:35:39;;;;;;;1999.90;999.90;;;12.90;99.90;;;;;;5075111;28;20103;-73
2024/01/26 00:38:05;;;;;;;1999.90;999.90;;;12.90;99.90;;;;;;5078573;28;20016;-71
2024/01/26 00:40:30;;;;;;;1999.90;999.90;;;12.90;99.90;;;;;;5094881;28;20483;-71
2024/01/26 00:42:56;;;;;;;1999.90;999.90;;;13.00;99.90;;;;;;5076698;28;20073;-71
2024/01/26 00:45:22;;;;;;;1999.90;999.90;;;13.00;99.90;;;;;;5094777;28;20020;-71
2024/01/26 00:47:47;;;;;;;1999.90;999.90;;;13.00;99.90;;;;;;5095086;28;20103;-71
2024/01/26 00:50:13;;;;;;;1999.90;999.90;;;13.10;99.90;;;;;;5094807;28;20421;-71
2024/01/26 00:52:39;;;;;;;1999.90;999.90;;;13.10;99.90;;;;;;5094761;28;20448;-73
2024/01/26 00:55:04;;;;;;;1999.90;999.90;;;13.20;99.90;;;;;;5094721;28;20032;-71
2024/01/26 00:57:30;;;;;;;1999.90;999.90;;;13.30;99.90;;;;;;5094667;28;20035;-70
2024/01/26 00:59:56;;;;;;;1999.90;999.90;;;13.40;99.90;;;;;;5090673;28;20056;-71
2024/01/26 01:02:22;;;;;;;1999.90;999.90;;;13.50;99.90;;;;;;5073469;28;20023;-73
2024/01/26 01:04:47;;;;;;;1999.90;999.90;;;13.60;99.90;;;;;;5074085;28;20041;-71
2024/01/26 01:07:13;;;;;;;1999.90;999.90;;;13.70;99.90;;;;;;5074367;28;20433;-73
2024/01/26 01:09:40;;;;;;;1999.90;999.90;;;13.90;99.90;;;;;;5074246;28;20035;-71
2024/01/26 01:12:07;;;;;;;1999.90;999.90;;;13.90;99.90;;;;;;5074211;28;20016;-71
2024/01/26 01:14:32;;;;;;;1999.90;999.90;;;14.00;99.90;;;;;;5082183;28;20023;-73
2024/01/26 01:16:58;;;;;;;1999.90;999.90;;;14.00;99.90;;;;;;5079403;28;20031;-73
2024/01/26 01:19:24;;;;;;;1999.90;999.90;;;14.10;99.90;;;;;;5075723;28;20115;-73
2024/01/26 01:21:50;;;;;;;1999.90;999.90;;;14.20;99.90;;;;;;5092902;28;20027;-73
2024/01/26 01:24:15;;;;;;;1999.90;999.90;;;14.20;99.90;;;;;;5079699;28;20040;-72
2024/01/26 01:26:41;;;;;;;1999.90;999.90;;;14.20;99.90;;;;;;5073582;28;20021;-73
2024/01/26 01:29:06;;;;;;;1999.90;999.90;;;14.20;99.90;;;;;;5073562;28;20024;-73
2024/01/26 01:31:32;;;;;;;1999.90;999.90;;;14.20;99.90;;;;;;5073420;28;20025;-71
2024/01/26 01:33:58;;;;;;;1999.90;999.90;;;14.20;99.90;;;;;;5087312;28;20036;-71
2024/01/26 01:36:23;;;;;;;1999.90;999.90;;;14.20;99.90;;;;;;5073697;28;20448;-71
2024/01/26 01:38:49;;;;;;;1999.90;999.90;;;14.30;99.90;;;;;;5073925;28;20384;-71
2024/01/26 01:41:15;;;;;;;1999.90;999.90;;;14.30;99.90;;;;;;5073294;28;20115;-73
2024/01/26 01:43:40;;;;;;;1999.90;999.90;;;14.40;99.90;;;;;;5073596;28;20025;-71
2024/01/26 01:46:07;;;;;;;1999.90;999.90;;;14.50;99.90;;;;;;5073477;28;20025;-71
2024/01/26 01:48:32;;;;;;;1999.90;999.90;;;14.50;99.90;;;;;;5073312;28;20024;-71
2024/01/26 01:50:59;;;;;;;1999.90;999.90;;;14.60;99.90;;;;;;5073695;28;20023;-73
2024/01/26 01:53:24;;;;;;;1999.90;999.90;;;14.60;99.90;;;;;;5084125;28;20153;-71
2024/01/26 01:55:52;;;;;;;1999.90;999.90;;;14.70;99.90;;;;;;5093732;28;20509;-73
2024/01/26 01:58:20;;;;;;;1999.90;999.90;;;14.70;99.90;;;;;;5093414;28;20032;-72
2024/01/26 02:00:46;;;;;;;1999.90;999.90;;;14.80;99.90;;;;;;5083261;28;20021;-71
2024/01/26 02:03:12;;;;;;;1999.90;999.90;;;14.90;99.90;;;;;;5072878;28;20070;-73
2024/01/26 02:05:37;;;;;;;1999.90;999.90;;;14.90;99.90;;;;;;5072969;28;20052;-71
2024/01/26 02:08:03;;;;;;;1999.90;999.90;;;15.10;99.90;;;;;;5073003;28;20090;-71
2024/01/26 02:10:29;;;;;;;1999.90;999.90;;;15.20;99.90;;;;;;5072650;28;20024;-71
2024/01/26 02:12:55;;;;;;;1999.90;999.90;;;15.20;99.90;;;;;;5072451;28;20461;-74
2024/01/26 02:15:21;;;;;;;1999.90;999.90;;;15.30;99.90;;;;;;5077503;28;20059;-73
2024/01/26 02:17:46;;;;;;;1999.90;999.90;;;15.30;99.90;;;;;;5083887;28;20394;-71
2024/01/26 02:20:12;;;;;;;1999.90;999.90;;;15.40;99.90;;;;;;5078756;28;20390;-71
2024/01/26 02:22:38;;;;;;;1999.90;999.90;;;15.40;99.90;;;;;;5092888;28;20063;-71
2024/01/26 02:25:04;;;;;;;1999.90;999.90;;;15.40;99.90;;;;;;5073059;28;20467;-71
2024/01/26 02:27:30;;;;;;;1999.90;999.90;;;15.40;99.90;;;;;;5072968;28;20075;-71
2024/01/26 02:29:56;;;;;;;1999.90;999.90;;;15.50;99.90;;;;;;5071895;28;20495;-73
2024/01/26 02:32:21;;;;;;;1999.90;999.90;;;15.50;99.90;;;;;;5072894;28;20021;-73
2024/01/26 02:34:47;;;;;;;1999.90;999.90;;;15.60;99.90;;;;;;5093009;28;20456;-73
2024/01/26 02:37:13;;;;;;;1999.90;999.90;;;15.60;99.90;;;;;;5092401;28;20016;-73
2024/01/26 02:39:39;;;;;;;1999.90;999.90;;;15.70;99.90;;;;;;5092879;28;20054;-71
2024/01/26 02:42:05;;;;;;;1999.90;999.90;;;15.80;99.90;;;;;;5092823;28;20390;-71
2024/01/26 02:44:32;;;;;;;1999.90;999.90;;;15.70;99.90;;;;;;5092916;28;20027;-73
2024/01/26 02:46:58;;;;;;;1999.90;999.90;;;15.80;99.90;;;;;;5092994;28;20391;-71
2024/01/26 02:49:24;;;;;;;1999.90;999.90;;;15.90;99.90;;;;;;5092383;28;20028;-73
2024/01/26 02:51:50;;;;;;;1999.90;999.90;;;15.90;99.90;;;;;;5092649;28;20209;-71
2024/01/26 02:54:15;;;;;;;1999.90;999.90;;;16.00;99.90;;;;;;5074732;28;20047;-73
2024/01/26 02:56:41;;;;;;;1999.90;999.90;;;16.00;99.90;;;;;;5072819;28;20391;-73
2024/01/26 02:59:06;;;;;;;1999.90;999.90;;;16.10;99.90;;;;;;5072388;28;20538;-73
2024/01/26 03:01:32;;;;;;;1999.90;999.90;;;16.00;99.90;;;;;;5072284;28;20017;-73
2024/01/26 03:03:59;;;;;;;1999.90;999.90;;;16.10;99.90;;;;;;5072113;28;20032;-73
2024/01/26 03:06:24;;;;;;;1999.90;999.90;;;16.10;99.90;;;;;;5072111;28;20519;-73
2024/01/26 03:08:50;;;;;;;1999.90;999.90;;;16.10;99.90;;;;;;5072171;28;20031;-71
2024/01/26 03:11:16;;;;;;;1999.90;999.90;;;16.20;99.90;;;;;;5071137;28;20042;-72
2024/01/26 03:13:41;;;;;;;1999.90;999.90;;;16.70;99.90;;;;;;5072560;28;20053;-71
2024/01/26 03:16:07;;;;;;;1999.90;999.90;;;16.90;99.90;;;;;;5090800;28;20034;-71
2024/01/26 03:18:33;;;;;;;1999.90;999.90;;;17.10;99.90;;;;;;5082191;28;20399;-71
2024/01/26 03:20:58;;;;;;;1999.90;999.90;;;17.10;99.90;;;;;;5072319;28;20395;-73
2024/01/26 03:23:24;;;;;;;1999.90;999.90;;;17.20;99.90;;;;;;5083640;28;20111;-71
2024/01/26 03:25:50;;;;;;;1999.90;999.90;;;17.40;99.90;;;;;;5092088;28;20040;-71
2024/01/26 03:28:16;;;;;;;1999.90;999.90;;;17.40;99.90;;;;;;5071950;28;20020;-71
2024/01/26 03:30:43;;;;;;;1999.90;999.90;;;17.50;99.90;;;;;;5071939;28;20487;-71
2024/01/26 03:33:09;;;;;;;1999.90;999.90;;;17.50;99.90;;;;;;5071905;28;20028;-71
2024/01/26 03:35:35;;;;;;;1999.90;999.90;;;17.50;99.90;;;;;;5072627;28;20094;-72
2024/01/26 03:38:01;;;;;;;1999.90;999.90;;;17.50;99.90;;;;;;5074133;28;20036;-73
2024/01/26 03:40:27;;;;;;;1999.90;999.90;;;17.90;99.90;;;;;;5092428;28;20017;-73
2024/01/26 03:42:53;;;;;;;1999.90;999.90;;;18.30;99.90;;;;;;5092268;28;20074;-71
2024/01/26 03:45:18;;;;;;;1999.90;999.90;;;20.30;99.90;;;;;;5092282;28;20024;-72
2024/01/26 03:47:44;;;;;;;1999.90;999.90;;;22.80;99.90;;;;;;5090862;28;20025;-71
2024/01/26 03:50:10;;;;;;;1999.90;999.90;;;23.80;99.90;;;;;;5072079;28;20492;-71
2024/01/26 03:52:36;;;;;;;1999.90;999.90;;;24.10;99.90;;;;;;5072210;28;20029;-71
2024/01/26 03:55:02;;;;;;;1999.90;999.90;;;24.30;99.90;;;;;;5075019;28;20036;-71
2024/01/26 03:57:27;;;;;;;1999.90;999.90;;;24.50;99.90;;;;;;5075703;28;20028;-73
2024/01/26 03:59:53;;;;;;;1999.90;999.90;;;24.60;99.90;;;;;;5075777;28;20024;-72
2024/01/26 04:02:19;;;;;;;1999.90;999.90;;;24.70;99.90;;;;;;5075496;28;20031;-72
2024/01/26 04:04:45;;;;;;;1999.90;999.90;;;24.80;99.90;;;;;;5075297;28;20568;-73
2024/01/26 04:07:11;;;;;;;1999.90;999.90;;;24.80;99.90;;;;;;5075662;28;20049;-73
2024/01/26 04:09:37;;;;;;;1999.90;999.90;;;24.80;99.90;;;;;;5075099;28;20044;-73
2024/01/26 04:12:04;;;;;;;1999.90;999.90;;;24.80;99.90;;;;;;5075124;28;20045;-73
2024/01/26 04:14:30;;;;;;;1999.90;999.90;;;24.80;99.90;;;;;;5075065;28;20479;-73
2024/01/26 04:16:56;;;;;;;1999.90;999.90;;;24.80;99.90;;;;;;5075844;28;20033;-73
2024/01/26 04:19:21;;;;;;;1999.90;999.90;;;24.80;99.90;;;;;;5094578;28;20027;-71
2024/01/26 04:21:49;;;;;;;1999.90;999.90;;;24.90;99.90;;;;;;5089907;28;20020;-71
2024/01/26 04:24:15;;;;;;;1999.90;999.90;;;24.90;99.90;;;;;;5074811;28;20025;-71
2024/01/26 04:26:41;;;;;;;1999.90;999.90;;;24.70;99.90;;;;;;5074816;28;20078;-71
2024/01/26 04:29:07;;;;;;;1999.90;999.90;;;24.60;99.90;;;;;;5074984;28;20063;-73
2024/01/26 04:31:33;;;;;;;1999.90;999.90;;;24.60;99.90;;;;;;5075064;28;20028;-71
2024/01/26 04:33:58;;;;;;;1999.90;999.90;;;24.60;99.90;;;;;;5088889;28;20074;-71
2024/01/26 04:36:24;;;;;;;1999.90;999.90;;;24.50;99.90;;;;;;5095097;28;20499;-72
2024/01/26 04:38:50;;;;;;;1999.90;999.90;;;24.50;99.90;;;;;;5091446;28;20058;-73
2024/01/26 04:41:15;;;;;;;1999.90;999.90;;;24.50;99.90;;;;;;5074699;28;20059;-73
2024/01/26 04:43:43;;;;;;;1999.90;999.90;;;24.50;99.90;;;;;;5074797;28;20025;-71
2024/01/26 04:46:08;;;;;;;1999.90;999.90;;;24.40;99.90;;;;;;5074686;28;20100;-71
2024/01/26 04:48:34;;;;;;;1999.90;999.90;;;24.40;99.90;;;;;;5074522;28;20150;-73
2024/01/26 04:51:00;;;;;;;1999.90;999.90;;;24.40;99.90;;;;;;5074724;28;20059;-71
2024/01/26 04:53:25;;;;;;;1999.90;999.90;;;24.50;99.90;;;;;;5074893;28;20016;-73
2024/01/26 04:55:51;;;;;;;1999.90;999.90;;;24.50;99.90;;;;;;5074609;28;20029;-71
2024/01/26 04:58:17;;;;;;;1999.90;999.90;;;24.50;99.90;;;;;;5074519;28;20021;-73
2024/01/26 05:00:42;;;;;;;1999.90;999.90;;;24.60;99.90;;;;;;5073888;28;20399;-71
2024/01/26 05:03:08;;;;;;;1999.90;999.90;;;24.60;99.90;;;;;;5056106;28;20027;-71
2024/01/26 05:05:33;;;;;;;1999.90;999.90;;;24.60;99.90;;;;;;5073327;28;20052;-73
2024/01/26 05:07:59;;;;;;;1999.90;999.90;;;24.60;99.90;;;;;;5074309;28;20025;-73
2024/01/26 05:10:24;;;;;;;1999.90;999.90;;;24.70;99.90;;;;;;5073770;28;20110;-73
2024/01/26 05:12:50;;;;;;;1999.90;999.90;;;24.70;99.90;;;;;;5074382;28;20029;-71
2024/01/26 05:15:16;;;;;;;1999.90;999.90;;;24.70;99.90;;;;;;5075332;28;20021;-73
2024/01/26 05:17:41;;;;;;;1999.90;999.90;;;24.80;99.90;;;;;;5076981;28;20032;-73
2024/01/26 05:20:10;;;;;;;1999.90;999.90;;;24.80;99.90;;;;;;5055824;28;20248;-71
2024/01/26 05:22:36;;;;;;;1999.90;999.90;;;24.80;99.90;;;;;;5073673;28;20087;-73
2024/01/26 05:25:02;;;;;;;1999.90;999.90;;;24.90;99.90;;;;;;5074323;28;20490;-73
2024/01/26 05:27:27;;;;;;;1999.90;999.90;;;24.90;99.90;;;;;;5081370;28;20100;-73
2024/01/26 05:29:53;;;;;;;1999.90;999.90;;;25.00;99.90;;;;;;5073365;28;20494;-73
2024/01/26 05:32:19;;;;;;;1999.90;999.90;;;25.00;99.90;;;;;;5073510;28;20511;-70
2024/01/26 05:34:45;;;;;;;1999.90;999.90;;;25.10;99.90;;;;;;5073415;28;20029;-71
2024/01/26 05:37:11;;;;;;;1999.90;999.90;;;25.10;99.90;;;;;;5073818;28;20036;-71
2024/01/26 05:39:36;;;;;;;1999.90;999.90;;;25.10;99.90;;;;;;5073739;28;20028;-71
2024/01/26 05:42:02;;;;;;;1999.90;999.90;;;25.20;99.90;;;;;;5077041;28;20471;-71
2024/01/26 05:44:28;;;;;;;1999.90;999.90;;;25.10;99.90;;;;;;5093553;28;20032;-71
2024/01/26 05:46:53;;;;;;;1999.90;999.90;;;25.60;99.90;;;;;;5093849;28;20030;-70
2024/01/26 05:49:19;;;;;;;1999.90;999.90;;;25.60;99.90;;;;;;5077731;28;20106;-73
2024/01/26 05:51:44;;;;;;;1999.90;999.90;;;25.50;99.90;;;;;;5077239;28;20040;-71
2024/01/26 05:54:11;;;;;;;1999.90;999.90;;;25.50;99.90;;;;;;5091843;28;20435;-71
2024/01/26 05:56:40;;;;;;;1999.90;999.90;;;25.50;99.90;;;;;;5068597;28;20590;-73
2024/01/26 05:59:07;;;;;;;1999.90;999.90;;;25.50;99.90;;;;;;5083737;28;20027;-73
2024/01/26 06:01:33;;;;;;;1999.90;999.90;;;25.50;99.90;;;;;;5075135;28;20544;-71
2024/01/26 06:03:59;;;;;;;1999.90;999.90;;;25.50;99.90;;;;;;5072647;28;20048;-71
2024/01/26 06:06:24;;;;;;;1999.90;999.90;;;25.50;99.90;;;;;;5071537;28;20068;-71
2024/01/26 06:08:50;;;;;;;1999.90;999.90;;;25.60;99.90;;;;;;5072248;28;20399;-71
2024/01/26 06:11:17;;;;;;;1999.90;999.90;;;25.60;99.90;;;;;;5073352;28;20104;-71
2024/01/26 06:13:43;;;;;;;1999.90;999.90;;;25.60;99.90;;;;;;5073123;28;20074;-73
2024/01/26 06:16:15;;;;;;;1999.90;999.90;;;25.50;99.90;;;;;;5056676;28;20028;-73
2024/01/26 06:18:43;;;;;;;1999.90;999.90;;;25.50;99.90;;;;;;5085624;28;20494;-73
2024/01/26 06:21:09;;;;;;;1999.90;999.90;;;25.50;99.90;;;;;;5088523;28;20367;-71
2024/01/26 06:23:35;;;;;;;1999.90;999.90;;;25.50;99.90;;;;;;5092908;28;20032;-71
2024/01/26 06:26:01;;;;;;;1999.90;999.90;;;25.50;99.90;;;;;;5089232;28;20505;-71
2024/01/26 06:28:26;;;;;;;1999.90;999.90;;;25.50;99.90;;;;;;5072151;28;20024;-71
2024/01/26 06:30:52;;;;;;;1999.90;999.90;;;25.50;99.90;;;;;;5073101;28;20055;-71
2024/01/26 06:33:18;;;;;;;1999.90;999.90;;;25.50;99.90;;;;;;5071872;28;20044;-73
2024/01/26 06:35:43;;;;;;;1999.90;999.90;;;25.40;99.90;;;;;;5071272;28;20099;-73
2024/01/26 06:38:09;;;;;;;1999.90;999.90;;;25.40;99.90;;;;;;5072461;28;20483;-71
2024/01/26 06:40:35;;;;;;;1999.90;999.90;;;25.50;99.90;;;;;;5089152;28;20490;-73
2024/01/26 06:43:06;;;;;;;1999.90;999.90;;;25.50;99.90;;;;;;5077988;28;20056;-71
2024/01/26 06:45:32;;;;;;;1999.90;999.90;;;25.50;99.90;;;;;;5081843;28;20021;-70
2024/01/26 06:47:58;;;;;;;1999.90;999.90;;;25.40;99.90;;;;;;5074939;28;20028;-73
2024/01/26 06:50:23;;;;;;;1999.90;999.90;;;25.40;99.90;;;;;;5068263;28;20024;-72
2024/01/26 06:52:49;;;;;;;1999.90;999.90;;;25.40;99.90;;;;;;5075008;28;20051;-70
2024/01/26 06:55:14;;;;;;;1999.90;999.90;;;25.40;99.90;;;;;;5080529;28;20502;-70
2024/01/26 06:57:40;;;;;;;1999.90;999.90;;;25.40;99.90;;;;;;5081259;28;20106;-70
2024/01/26 07:00:07;;;;;;;1999.90;999.90;;;25.50;99.90;;;;;;5072354;28;20174;-72
2024/01/26 07:02:33;;;;;;;1999.90;999.90;;;25.40;99.90;;;;;;5070274;28;20020;-73
2024/01/26 07:04:59;;;;;;;1999.90;999.90;;;25.50;99.90;;;;;;5071737;28;20360;-73
2024/01/26 07:07:25;;;;;;;1999.90;999.90;;;25.50;99.90;;;;;;5073671;28;20020;-70
2024/01/26 07:09:50;;;;;;;1999.90;999.90;;;25.50;99.90;;;;;;5080513;28;20083;-71
2024/01/26 07:12:16;;;;;;;1999.90;999.90;;;25.50;99.90;;;;;;5068030;28;20025;-72
2024/01/26 07:14:42;;;;;;;1999.90;999.90;;;25.50;99.90;;;;;;5074835;28;20020;-73
2024/01/26 07:17:08;;;;;;;1999.90;999.90;;;25.60;99.90;;;;;;5080201;28;20028;-71
2024/01/26 07:19:33;;;;;;;1999.90;999.90;;;25.60;99.90;;;;;;5087642;28;20127;-75
2024/01/26 07:21:59;;;;;;;1999.90;999.90;;;25.70;99.90;;;;;;5076846;28;20449;-73
2024/01/26 07:24:25;;;;;;;1999.90;999.90;;;25.70;99.90;;;;;;5079133;28;20103;-71
2024/01/26 07:26:50;;;;;;;1999.90;999.90;;;25.70;99.90;;;;;;5086110;28;20032;-72
2024/01/26 07:29:16;;;;;;;1999.90;999.90;;;25.70;99.90;;;;;;5077160;28;20039;-73
2024/01/26 07:31:43;;;;;;;1999.90;999.90;;;25.80;99.90;;;;;;5085929;28;20028;-71
2024/01/26 07:34:09;;;;;;;1999.90;999.90;;;25.80;99.90;;;;;;5086187;28;20055;-73
2024/01/26 07:36:36;;;;;;;1999.90;999.90;;;25.80;99.90;;;;;;5074936;28;20028;-73
2024/01/26 07:39:04;;;;;;;1999.90;999.90;;;25.80;99.90;;;;;;5094843;28;20458;-73
2024/01/26 07:41:30;;;;;;;1999.90;999.90;;;25.90;99.90;;;;;;5082347;28;20031;-73
2024/01/26 07:43:55;;;;;;;1999.90;999.90;;;25.90;99.90;;;;;;5074809;28;20024;-71
2024/01/26 07:46:21;;;;;;;1999.90;999.90;;;25.90;99.90;;;;;;5074708;28;20050;-71
2024/01/26 07:48:47;;;;;;;1999.90;999.90;;;25.90;99.90;;;;;;5091450;28;20066;-73
2024/01/26 07:51:12;;;;;;;1999.90;999.90;;;25.90;99.90;;;;;;5094368;28;20030;-74
2024/01/26 07:53:38;;;;;;;1999.90;999.90;;;25.90;99.90;;;;;;5094353;28;20049;-71
2024/01/26 07:56:04;;;;;;;1999.90;999.90;;;25.90;99.90;;;;;;5094123;28;20020;-74
2024/01/26 07:58:29;;;;;;;1999.90;999.90;;;25.90;99.90;;;;;;5078332;28;20029;-70
2024/01/26 08:00:55;;;;;;;1999.90;999.90;;;25.80;99.90;;;;;;5057820;28;20028;-73
2024/01/26 08:03:20;;;;;;;1999.90;999.90;;;25.80;99.90;;;;;;5078642;28;20020;-71
2024/01/26 08:05:46;;;;;;;1999.90;999.90;;;25.80;99.90;;;;;;5071961;28;20084;-73
2024/01/26 08:08:11;;;;;;;1999.90;999.90;;;25.90;99.90;;;;;;5083148;28;20035;-76
2024/01/26 08:10:37;;;;;;;1999.90;999.90;;;25.90;99.90;;;;;;5093961;28;20108;-71
2024/01/26 08:13:03;;;;;;;1999.90;999.90;;;25.90;99.90;;;;;;5094176;28;20548;-71
2024/01/26 08:15:28;;;;;;;1999.90;999.90;;;25.80;99.90;;;;;;5085215;28;20112;-73
2024/01/26 08:17:54;;;;;;;1999.90;999.90;;;25.70;99.90;;;;;;5078553;28;20024;-71
2024/01/26 08:20:20;;;;;;;1999.90;999.90;;;25.60;99.90;;;;;;5076671;28;20084;-73
2024/01/26 08:22:45;;;;;;;1999.90;999.90;;;25.60;99.90;;;;;;5081673;28;20390;-72
2024/01/26 08:25:11;;;;;;;1999.90;999.90;;;25.60;99.90;;;;;;5056766;28;20036;-73
2024/01/26 08:27:37;;;;;;;1999.90;999.90;;;25.60;99.90;;;;;;5074110;28;20079;-72
2024/01/26 08:30:04;;;;;;;1999.90;999.90;;;25.60;99.90;;;;;;5079508;28;20568;-71
2024/01/26 08:32:29;;;;;;;1999.90;999.90;;;25.60;99.90;;;;;;5063739;28;20411;-71
2024/01/26 08:34:56;;;;;;;1999.90;999.90;;;25.60;99.90;;;;;;5080303;28;20052;-72
2024/01/26 08:37:22;;;;;;;1999.90;999.90;;;25.60;99.90;;;;;;5076895;28;20516;-71
2024/01/26 08:39:47;;;;;;;1999.90;999.90;;;25.60;99.90;;;;;;5084804;28;20064;-72
2024/01/26 08:42:13;;;;;;;1999.90;999.90;;;25.60;99.90;;;;;;5077824;28;20021;-72
2024/01/26 08:44:38;;;;;;;1999.90;999.90;;;25.60;99.90;;;;;;5073659;28;20025;-72
2024/01/26 08:47:05;;;;;;;1999.90;999.90;;;25.60;99.90;;;;;;5084813;28;20501;-73
2024/01/26 08:49:31;;;;;;;1999.90;999.90;;;25.60;99.90;;;;;;5087725;28;20020;-72
2024/01/26 08:51:58;;;;;;;1999.90;999.90;;;25.60;99.90;;;;;;5055489;28;20036;-72
2024/01/26 08:54:24;;;;;;;1999.90;999.90;;;25.60;99.90;;;;;;5073509;28;20036;-73
2024/01/26 08:56:50;;;;;;;1999.90;999.90;;;25.60;99.90;;;;;;5082184;28;20105;-72
2024/01/26 08:59:16;;;;;;;1999.90;999.90;;;25.60;99.90;;;;;;5077203;28;20060;-73
2024/01/26 09:01:42;;;;;;;1999.90;999.90;;;25.60;99.90;;;;;;5073414;28;20061;-73
2024/01/26 09:04:08;;;;;;;1999.90;999.90;;;25.50;99.90;;;;;;5072767;28;20029;-73
2024/01/26 09:06:34;;;;;;;1999.90;999.90;;;25.50;99.90;;;;;;5072980;28;20150;-72
2024/01/26 09:09:00;;;;;;;1999.90;999.90;;;25.60;99.90;;;;;;5073472;28;20025;-74
2024/01/26 09:11:26;;;;;;;1999.90;999.90;;;25.60;99.90;;;;;;5080332;28;20050;-74
2024/01/26 09:13:52;;;;;;;1999.90;999.90;;;25.60;99.90;;;;;;5059161;28;20024;-74
2024/01/26 09:16:17;;;;;;;1999.90;999.90;;;25.60;99.90;;;;;;5091587;28;20046;-74
2024/01/26 09:18:43;;;;;;;1999.90;999.90;;;25.50;99.90;;;;;;5072611;28;20086;-72
2024/01/26 09:21:11;;;;;;;1999.90;999.90;;;25.50;99.90;;;;;;5082608;28;20101;-74
2024/01/26 09:23:43;;;;;;;1999.90;999.90;;;25.50;99.90;;;;;;5092523;28;20028;-74
2024/01/26 09:26:09;;;;;;;1999.90;999.90;;;25.40;99.90;;;;;;5083023;28;20035;-74
2024/01/26 09:28:35;;;;;;;1999.90;999.90;;;25.40;99.90;;;;;;5083148;28;20073;-72
2024/01/26 09:31:00;;;;;;;1999.90;999.90;;;25.30;99.90;;;;;;5077105;28;20044;-74
2024/01/26 09:33:26;;;;;;;1999.90;999.90;;;25.30;99.90;;;;;;5070597;28;20037;-72
2024/01/26 09:35:52;;;;;;;1999.90;999.90;;;25.30;99.90;;;;;;5054825;28;20040;-72
2024/01/26 09:38:18;;;;;;;1999.90;999.90;;;25.30;99.90;;;;;;5068179;28;20120;-74
2024/01/26 09:40:44;;;;;;;1999.90;999.90;;;25.20;99.90;;;;;;5066471;28;20033;-72
2024/01/26 09:43:10;;;;;;;1999.90;999.90;;;25.30;99.90;;;;;;5075250;28;20378;-72
2024/01/26 09:45:36;;;;;;;1999.90;999.90;;;25.30;99.90;;;;;;5083431;28;20115;-74
2024/01/26 09:48:04;;;;;;;1999.90;999.90;;;25.30;99.90;;;;;;5087655;28;20036;-72
2024/01/26 09:50:30;;;;;;;1999.90;999.90;;;25.40;99.90;;;;;;5073257;28;20475;-73
2024/01/26 09:52:58;;;;;;;1999.90;999.90;;;25.30;99.90;;;;;;5073692;28;20020;-74
2024/01/26 09:55:25;;;;;;;1999.90;999.90;;;25.40;99.90;;;;;;5081381;28;20077;-72
2024/01/26 09:57:53;;;;;;;1999.90;999.90;;;25.40;99.90;;;;;;5079973;28;20023;-74
2024/01/26 10:00:19;;;;;;;1999.90;999.90;;;25.50;99.90;;;;;;5073111;28;20513;-73
2024/01/26 10:02:45;;;;;;;1999.90;999.90;;;25.50;99.90;;;;;;5075395;28;20024;-72
2024/01/26 10:05:15;;;;;;;1999.90;999.90;;;25.40;99.90;;;;;;5078595;28;20055;-75
2024/01/26 10:07:41;;;;;;;1999.90;999.90;;;25.40;99.90;;;;;;5073854;28;20020;-75
2024/01/26 10:10:07;;;;;;;1999.90;999.90;;;25.30;99.90;;;;;;5083093;28;20506;-72
2024/01/26 10:12:35;;;;;;;1999.90;999.90;;;25.30;99.90;;;;;;5075811;28;20067;-71
2024/01/26 10:15:11;;;;;;;1999.90;999.90;;;25.30;99.90;;;;;;5072774;28;20055;-74
2024/01/26 10:17:38;;;;;;;1999.90;999.90;;;25.10;99.90;;;;;;5078371;28;20529;-74
2024/01/26 10:20:15;;;;;;;1999.90;999.90;;;25.10;99.90;;;;;;5089385;28;20039;-74
2024/01/26 10:22:42;;;;;;;1999.90;999.90;;;25.00;99.90;;;;;;5078737;28;20035;-71
2024/01/26 10:25:11;;;;;;;1999.90;999.90;;;24.80;99.90;;;;;;5082507;28;20039;-74
2024/01/26 10:27:37;;;;;;;1999.90;999.90;;;24.80;99.90;;;;;;5076799;28;20103;-74
2024/01/26 10:30:04;;;;;;;1999.90;999.90;;;24.70;99.90;;;;;;5090258;28;20110;-74
2024/01/26 10:32:32;;;;;;;1999.90;999.90;;;24.60;99.90;;;;;;5090777;28;20497;-71
2024/01/26 10:34:59;;;;;;;1999.90;999.90;;;24.60;99.90;;;;;;5059636;28;20037;-75
2024/01/26 10:37:30;;;;;;;1999.90;999.90;;;24.40;99.90;;;;;;5075368;28;20047;-75
2024/01/26 10:39:56;;;;;;;1999.90;999.90;;;24.40;99.90;;;;;;5088785;28;20134;-74
2024/01/26 10:42:23;;;;;;;1999.90;999.90;;;24.40;99.90;;;;;;5077611;28;20046;-70
2024/01/26 10:44:50;;;;;;;1999.90;999.90;;;24.30;99.90;;;;;;5059122;28;20024;-71
2024/01/26 10:47:20;;;;;;;1999.90;999.90;;;24.20;99.90;;;;;;5085064;28;20043;-75
2024/01/26 10:49:49;;;;;;;1999.90;999.90;;;24.10;99.90;;;;;;5076714;28;20132;-71
2024/01/26 10:52:19;;;;;;;1999.90;999.90;;;23.90;99.90;;;;;;5086203;28;20043;-75
2024/01/26 10:54:50;;;;;;;1999.90;999.90;;;23.70;99.90;;;;;;5081927;28;20035;-75
2024/01/26 10:57:19;;;;;;;1999.90;999.90;;;23.60;99.90;;;;;;5077531;28;20042;-75
2024/01/26 10:59:45;;;;;;;1999.90;999.90;;;23.60;99.90;;;;;;5078453;28;20415;-71
2024/01/26 11:02:27;;;;;;;1999.90;999.90;;;24.00;99.90;;;;;;5084496;28;20025;-72
2024/01/26 11:04:53;;;;;;;1999.90;999.90;;;23.90;99.90;;;;;;5088552;28;20123;-74
2024/01/26 11:07:19;;;;;;;1999.90;999.90;;;23.80;99.90;;;;;;5064916;28;20154;-72
2024/01/26 11:09:50;;;;;;;1999.90;999.90;;;23.80;99.90;;;;;;5092902;28;20418;-74
2024/01/26 11:12:25;;;;;;;1999.90;999.90;;;23.70;99.90;;;;;;5089390;28;20039;-74
2024/01/26 11:15:09;;;;;;;1999.90;999.90;;;23.70;99.90;;;;;;5077924;28;20036;-74
2024/01/26 11:17:43;;;;;;;1999.90;999.90;;;23.60;99.90;;;;;;5077191;28;20031;-73
2024/01/26 11:20:19;;;;;;;1999.90;999.90;;;23.50;99.90;;;;;;5063638;28;20592;-73
2024/01/26 11:22:46;;;;;;;1999.90;999.90;;;23.50;99.90;;;;;;5050160;28;20031;-74
2024/01/26 11:25:21;;;;;;;1999.90;999.90;;;23.50;99.90;;;;;;5087804;28;20024;-74
2024/01/26 11:27:56;;;;;;;1999.90;999.90;;;23.50;99.90;;;;;;5077774;28;20029;-72
2024/01/26 11:30:23;;;;;;;1999.90;999.90;;;23.40;99.90;;;;;;5087711;28;20024;-72
2024/01/26 11:32:49;;;;;;;1999.90;999.90;;;23.40;99.90;;;;;;5069449;28;20498;-72
2024/01/26 11:35:16;;;;;;;1999.90;999.90;;;23.40;99.90;;;;;;5074128;28;20069;-74
2024/01/26 11:37:42;;;;;;;1999.90;999.90;;;23.40;99.90;;;;;;5076550;28;20399;-73
2024/01/26 11:40:09;;;;;;;1999.90;999.90;;;23.50;99.90;;;;;;5076765;28;20050;-71
2024/01/26 11:42:36;;;;;;;1999.90;999.90;;;23.50;99.90;;;;;;5072843;28;20020;-74
2024/01/26 11:45:13;;;;;;;1999.90;999.90;;;23.50;99.90;;;;;;5072763;28;20031;-72
2024/01/26 11:47:42;;;;;;;1999.90;999.90;;;23.50;99.90;;;;;;5072137;28;20024;-72
2024/01/26 11:50:12;;;;;;;1999.90;999.90;;;23.50;99.90;;;;;;5074264;28;20032;-72
2024/01/26 11:52:38;;;;;;;1999.90;999.90;;;23.50;99.90;;;;;;5066810;28;20289;-72
2024/01/26 11:55:06;;;;;;;1999.90;999.90;;;23.40;99.90;;;;;;5079064;28;20075;-74